Doris Moran — WRU2125 — position and weather

sailwx.info

Track history (hours):
 
Tides and Currents Weather Stations Pressure Air Temp Water Temp Dewpoint Dewpoint Depression Visibility Wind Speed Wind Dir Waves Ship Positions

Doris Moran

Owner: MORAN TOWING CORPORATION, New Canaan, CT. More information available from US FCC via Universal Licensing System and Coast Guard Vessel Documentation Center.

Last reported at 2017-Feb-21 16:33 UTC. Time now 2017-Feb-21 17:25 UTC.
Position N 40°40' W 074°08'.

Length 36 m; draft 5.3 m.

Type: Tug. MMSI: 366939790.

Date/timePositionNaut miles runAvg speedWind from/ knotsBaromVisibWave heightAir tempDewpointWater temp
2017-Feb-21 16:33N 40°40' W 074°08'1 1.4
2017-Feb-21 15:33N 40°41' W 074°08'3 2.9
2017-Feb-21 14:32N 40°38' W 074°08'0 0.0
2017-Feb-21 13:32N 40°38' W 074°08'0 0.5
2017-Feb-21 12:33N 40°39' W 074°08'1 0.8
2017-Feb-21 11:33N 40°39' W 074°09'4 4.0
2017-Feb-21 10:33N 40°39' W 074°03'0 0.4
2017-Feb-21 09:33N 40°38' W 074°04'3 2.9
2017-Feb-21 08:33N 40°38' W 074°08'0 0.0
2017-Feb-21 07:33N 40°38' W 074°08'0 0.0
2017-Feb-21 06:33N 40°38' W 074°08'0 0.0
2017-Feb-21 05:30N 40°38' W 074°08'0 0.0
2017-Feb-21 04:33N 40°38' W 074°08'0 0.1
2017-Feb-21 03:33N 40°39' W 074°08'2 2.0
2017-Feb-21 02:33N 40°39' W 074°05'1 0.6
2017-Feb-21 01:33N 40°39' W 074°06'1 1.3
2017-Feb-21 00:33N 40°39' W 074°04'0 0.4
2017-Feb-20 23:34N 40°39' W 074°05'2 2.4
2017-Feb-20 22:32N 40°38' W 074°08'0 0.0
2017-Feb-20 21:26N 40°38' W 074°08'1 1.7
2017-Feb-20 20:33N 40°39' W 074°10'1 0.9
2017-Feb-20 19:33N 40°39' W 074°11'2 2.4
2017-Feb-20 18:33N 40°38' W 074°08'0 0.0
2017-Feb-20 17:33N 40°38' W 074°08'2 1.6
2017-Feb-20 16:33N 40°40' W 074°09'2 1.5
2017-Feb-20 15:29N 40°38' W 074°08'0 0.0
2017-Feb-20 14:29N 40°38' W 074°08'0 0.0
2017-Feb-20 13:32N 40°38' W 074°08'0 0.0
2017-Feb-20 12:32N 40°38' W 074°08'0 0.0
2017-Feb-20 11:32N 40°38' W 074°08'0 0.0
2017-Feb-20 10:32N 40°38' W 074°08'0 0.0
2017-Feb-20 09:26N 40°38' W 074°08'0 0.0
2017-Feb-20 08:32N 40°38' W 074°08'0 0.0
2017-Feb-20 07:32N 40°38' W 074°08'0 0.0
2017-Feb-20 06:32N 40°38' W 074°08'0 0.0
2017-Feb-20 05:29N 40°38' W 074°08'0 0.0
2017-Feb-20 04:32N 40°38' W 074°08'0 0.0
2017-Feb-20 03:26N 40°38' W 074°08'0 0.0
2017-Feb-20 02:32N 40°38' W 074°08'0 0.0
2017-Feb-20 01:33N 40°38' W 074°08'0 0.0
2017-Feb-20 00:33N 40°38' W 074°08'3 2.9
2017-Feb-19 23:33N 40°40' W 074°04'2 1.7
2017-Feb-19 22:31N 40°40' W 074°02'2 1.8
2017-Feb-19 21:33N 40°39' W 074°04'4 3.5
2017-Feb-19 20:30N 40°39' W 074°09'2 2.1
2017-Feb-19 19:33N 40°41' W 074°09'3 2.6
2017-Feb-19 18:33N 40°38' W 074°08'0 0.0
2017-Feb-19 17:33N 40°38' W 074°08'0 0.0
2017-Feb-19 16:33N 40°38' W 074°08'0 0.0
2017-Feb-19 15:33N 40°38' W 074°08'0 0.0
2017-Feb-19 14:30N 40°38' W 074°08'0 0.0
2017-Feb-19 13:33N 40°38' W 074°08'0 0.0
2017-Feb-19 12:33N 40°38' W 074°08'0 0.0
2017-Feb-19 11:34N 40°38' W 074°08'0 0.0
2017-Feb-19 10:33N 40°38' W 074°08'0 0.0
2017-Feb-19 09:33N 40°38' W 074°08'0 0.0
2017-Feb-19 08:33N 40°38' W 074°08'0 0.0
2017-Feb-19 07:33N 40°38' W 074°08'0 0.0
2017-Feb-19 06:33N 40°38' W 074°08'0 0.0
2017-Feb-19 05:33N 40°38' W 074°08'0 0.0
2017-Feb-19 04:34N 40°38' W 074°08'0 0.0
2017-Feb-19 03:33N 40°38' W 074°08'0 0.0
2017-Feb-19 02:33N 40°38' W 074°08'0 0.0
2017-Feb-19 01:33N 40°38' W 074°08'0 0.0
2017-Feb-19 00:33N 40°38' W 074°08'0 0.0
2017-Feb-18 23:33N 40°38' W 074°08'0 0.0
2017-Feb-18 22:33N 40°38' W 074°08'1 0.6
2017-Feb-18 21:33N 40°38' W 074°09'5 4.5
2017-Feb-18 20:32N 40°37' W 074°03'3 3.5
2017-Feb-18 19:33N 40°39' W 074°07'1 0.7
2017-Feb-18 18:31N 40°38' W 074°08'0 0.0
2017-Feb-18 17:33N 40°38' W 074°08'4 4.0
2017-Feb-18 16:33N 40°39' W 074°03'0 0.0
2017-Feb-18 15:33N 40°39' W 074°03'0 0.1
2017-Feb-18 14:33N 40°39' W 074°03'0 0.1
2017-Feb-18 13:33N 40°39' W 074°03'0 0.0
2017-Feb-18 12:33N 40°39' W 074°03'4 3.9
2017-Feb-18 11:33N 40°38' W 074°08'0 0.0
2017-Feb-18 10:27N 40°38' W 074°08'0 0.0
2017-Feb-18 09:33N 40°38' W 074°08'0 0.0
2017-Feb-18 08:33N 40°38' W 074°08'0 0.0
2017-Feb-18 07:33N 40°38' W 074°08'0 0.0
2017-Feb-18 06:33N 40°38' W 074°08'0 0.0
2017-Feb-18 05:33N 40°38' W 074°08'0 0.0
2017-Feb-18 04:33N 40°38' W 074°08'0 0.0
2017-Feb-18 03:33N 40°38' W 074°08'0 0.0
2017-Feb-18 02:33N 40°38' W 074°08'0 0.0
2017-Feb-18 01:30N 40°38' W 074°08'0 0.0
2017-Feb-18 00:33N 40°38' W 074°08'0 0.0
2017-Feb-17 23:33N 40°38' W 074°08'0 0.0
2017-Feb-17 22:33N 40°38' W 074°08'0 0.0
2017-Feb-17 21:33N 40°38' W 074°08'0 0.0
2017-Feb-17 20:30N 40°38' W 074°08'0 0.0
2017-Feb-17 19:24N 40°38' W 074°08'0 0.0
2017-Feb-17 18:33N 40°38' W 074°08'0 0.0
2017-Feb-17 17:33N 40°38' W 074°08'0 0.0
2017-Feb-17 16:33N 40°38' W 074°08'0 0.0
2017-Feb-17 15:33N 40°38' W 074°08'0 0.0
2017-Feb-17 14:27N 40°38' W 074°08'0 0.0
2017-Feb-17 13:33N 40°38' W 074°08'0 0.0
2017-Feb-17 12:33N 40°38' W 074°08'0 0.0
2017-Feb-17 11:33N 40°38' W 074°08'0 0.0
2017-Feb-17 10:33N 40°38' W 074°08'0 0.0
2017-Feb-17 09:33N 40°38' W 074°08'0 0.0
2017-Feb-17 08:30N 40°38' W 074°08'0 0.0
2017-Feb-17 07:33N 40°38' W 074°08'0 0.0
2017-Feb-17 06:33N 40°38' W 074°08'0 0.0
2017-Feb-17 05:33N 40°38' W 074°08'0 0.0
2017-Feb-17 04:33N 40°38' W 074°08'0 0.0
2017-Feb-17 03:33N 40°38' W 074°08'0 0.0
2017-Feb-17 02:33N 40°38' W 074°08'0 0.4
2017-Feb-17 01:33N 40°39' W 074°07'0 0.4
2017-Feb-17 00:33N 40°38' W 074°08'0 0.0
2017-Feb-16 23:33N 40°38' W 074°08'0 0.0
2017-Feb-16 22:33N 40°38' W 074°08'0 0.0
2017-Feb-16 21:33N 40°38' W 074°08'0 0.0
2017-Feb-16 20:33N 40°38' W 074°08'0 0.0
2017-Feb-16 19:33N 40°38' W 074°08'0 0.0
2017-Feb-16 18:33N 40°38' W 074°08'0 0.0
2017-Feb-16 17:33N 40°38' W 074°08'0 0.0
2017-Feb-16 16:33N 40°38' W 074°08'0 0.0
2017-Feb-16 15:33N 40°38' W 074°08'0 0.0
2017-Feb-16 14:33N 40°38' W 074°08'0 0.0
2017-Feb-16 13:33N 40°38' W 074°08'0 0.0
2017-Feb-16 12:33N 40°38' W 074°08'0 0.0
2017-Feb-16 11:29N 40°38' W 074°08'0 0.0
2017-Feb-16 09:25N 40°38' W 074°08'0 0.0
2017-Feb-16 07:33N 40°38' W 074°08'0 0.0
2017-Feb-16 06:33N 40°38' W 074°08'0 0.0
2017-Feb-16 05:33N 40°38' W 074°08'0 0.0
2017-Feb-16 04:33N 40°38' W 074°08'0 0.0
2017-Feb-16 03:33N 40°38' W 074°08'0 0.0
2017-Feb-16 02:33N 40°38' W 074°08'0 0.0
2017-Feb-16 01:33N 40°38' W 074°08'0 0.0
2017-Feb-16 00:33N 40°38' W 074°08'0 0.0
2017-Feb-15 23:33N 40°38' W 074°08'0 0.0
2017-Feb-15 22:33N 40°38' W 074°08'0 0.0
2017-Feb-15 21:33N 40°38' W 074°08'2 1.7
2017-Feb-15 20:33N 40°40' W 074°09'2 2.2
2017-Feb-15 19:33N 40°39' W 074°06'1 1.3
2017-Feb-15 18:29N 40°38' W 074°08'0 0.0
2017-Feb-15 17:31N 40°38' W 074°08'0 0.0
2017-Feb-15 16:32N 40°38' W 074°08'0 0.0
2017-Feb-15 15:33N 40°38' W 074°08'0 0.1
2017-Feb-15 14:33N 40°39' W 074°08'0 0.1
2017-Feb-15 13:33N 40°38' W 074°08'0 0.0
2017-Feb-15 12:33N 40°38' W 074°08'0 0.0
2017-Feb-15 11:33N 40°38' W 074°08'0 0.0
2017-Feb-15 10:33N 40°38' W 074°08'0 0.0
2017-Feb-15 09:33N 40°38' W 074°08'0 0.0
2017-Feb-15 08:33N 40°38' W 074°08'0 0.0
2017-Feb-15 07:33N 40°38' W 074°08'0 0.0
2017-Feb-15 06:33N 40°38' W 074°08'0 0.0
2017-Feb-15 05:33N 40°38' W 074°08'0 0.0
2017-Feb-15 04:33N 40°38' W 074°08'0 0.0
2017-Feb-15 03:33N 40°38' W 074°08'0 0.0
2017-Feb-15 02:33N 40°38' W 074°08'0 0.0
2017-Feb-15 01:33N 40°38' W 074°08'0 0.0
2017-Feb-15 00:34N 40°38' W 074°08'6 6.4
2017-Feb-14 23:33N 40°41' W 074°00'5 4.8
2017-Feb-14 22:33N 40°39' W 074°06'4 3.9
2017-Feb-14 21:33N 40°42' W 074°09'0 0.1
2017-Feb-14 20:33N 40°42' W 074°09'0 0.0
2017-Feb-14 19:33N 40°42' W 074°09'0 0.0
2017-Feb-14 18:33N 40°42' W 074°09'0 0.0
2017-Feb-14 17:33N 40°42' W 074°09'3 3.3
2017-Feb-14 16:33N 40°39' W 074°08'6 6.4
2017-Feb-14 15:33N 40°41' W 074°00'6 6.3
2017-Feb-14 14:32N 40°38' W 074°08'0 0.0
2017-Feb-14 13:33N 40°38' W 074°08'0 0.0
2017-Feb-14 12:33N 40°38' W 074°08'0 0.0
2017-Feb-14 11:32N 40°38' W 074°08'0 0.0
2017-Feb-14 10:33N 40°38' W 074°08'0 0.0
2017-Feb-14 09:33N 40°38' W 074°08'0 0.0
2017-Feb-14 08:33N 40°38' W 074°08'0 0.0
2017-Feb-14 07:33N 40°38' W 074°08'0 0.0
2017-Feb-14 06:33N 40°38' W 074°08'0 0.0
2017-Feb-14 05:33N 40°38' W 074°08'0 0.0
2017-Feb-14 04:33N 40°38' W 074°08'0 0.0
2017-Feb-14 03:33N 40°38' W 074°08'0 0.0
2017-Feb-14 02:33N 40°38' W 074°08'0 0.0
2017-Feb-14 01:33N 40°38' W 074°08'0 0.0
2017-Feb-14 00:33N 40°38' W 074°08'0 0.0
2017-Feb-13 23:33N 40°39' W 074°08'0 0.0
2017-Feb-13 22:33N 40°39' W 074°08'2 1.9
2017-Feb-13 21:33N 40°40' W 074°08'3 2.5
2017-Feb-13 20:33N 40°39' W 074°05'2 1.9
2017-Feb-13 19:33N 40°39' W 074°08'0 0.0
2017-Feb-13 18:33N 40°38' W 074°08'0 0.0
2017-Feb-13 17:34N 40°38' W 074°08'0 0.0
2017-Feb-13 16:33N 40°38' W 074°08'0 0.0
2017-Feb-13 15:33N 40°38' W 074°08'0 0.0
2017-Feb-13 14:34N 40°38' W 074°08'0 0.0
2017-Feb-13 13:33N 40°38' W 074°08'1 0.8
2017-Feb-13 12:33N 40°38' W 074°09'1 0.6
2017-Feb-13 11:34N 40°39' W 074°10'1 1.4
2017-Feb-13 10:34N 40°38' W 074°08'0 0.0
2017-Feb-13 09:33N 40°39' W 074°08'0 0.0
2017-Feb-13 08:34N 40°38' W 074°08'0 0.0
2017-Feb-13 07:34N 40°38' W 074°08'3 2.5
2017-Feb-13 06:34N 40°39' W 074°05'2 1.6
2017-Feb-13 05:34N 40°38' W 074°03'4 3.7
2017-Feb-13 04:34N 40°38' W 074°08'0 0.0
2017-Feb-13 03:34N 40°38' W 074°08'0 0.0
2017-Feb-13 02:34N 40°38' W 074°08'0 0.0
2017-Feb-13 01:33N 40°38' W 074°08'0 0.0
2017-Feb-13 00:34N 40°38' W 074°08'0 0.0
2017-Feb-12 23:34N 40°38' W 074°08'0 0.0
2017-Feb-12 22:33N 40°38' W 074°08'0 0.0
2017-Feb-12 21:33N 40°38' W 074°08'0 0.0
2017-Feb-12 20:34N 40°38' W 074°08'0 0.0
2017-Feb-12 19:34N 40°38' W 074°08'0 0.0
2017-Feb-12 18:34N 40°38' W 074°08'0 0.0
2017-Feb-12 17:34N 40°38' W 074°08'0 0.0
2017-Feb-12 16:33N 40°38' W 074°08'0 0.0
2017-Feb-12 15:34N 40°38' W 074°08'0 0.0
2017-Feb-12 14:33N 40°38' W 074°08'0 0.0
2017-Feb-12 13:34N 40°38' W 074°08'0 0.0
2017-Feb-12 12:34N 40°38' W 074°08'0 0.0
2017-Feb-12 11:34N 40°38' W 074°08'0 0.0
2017-Feb-12 10:34N 40°38' W 074°08'0 0.0
2017-Feb-12 09:34N 40°38' W 074°08'0 0.0
2017-Feb-12 08:34N 40°38' W 074°08'0 0.0
2017-Feb-12 07:33N 40°38' W 074°08'0 0.0
2017-Feb-12 06:33N 40°38' W 074°08'0 0.0
2017-Feb-12 05:33N 40°38' W 074°08'3 3.4
2017-Feb-12 04:33N 40°38' W 074°12'6 5.5
2017-Feb-12 03:33N 40°32' W 074°15'0 0.0
2017-Feb-12 02:33N 40°32' W 074°15'4 3.3
2017-Feb-12 01:27N 40°35' W 074°12'4 4.4
2017-Feb-12 00:33N 40°39' W 074°10'5 5.4
2017-Feb-11 23:33N 40°38' W 074°03'3 3.1
2017-Feb-11 22:34N 40°39' W 074°07'1 0.7
2017-Feb-11 21:33N 40°38' W 074°08'2 2.0
2017-Feb-11 20:33N 40°40' W 074°08'2 1.8
2017-Feb-11 19:34N 40°39' W 074°08'0 0.5
2017-Feb-11 18:34N 40°38' W 074°08'4 3.8
2017-Feb-11 17:34N 40°39' W 074°03'  
Track history (hours):
 
Tides and Currents Weather Stations Pressure Air Temp Water Temp Dewpoint Dewpoint Depression Visibility Wind Speed Wind Dir Waves Ship Positions

Doris Moran

Owner: MORAN TOWING CORPORATION, New Canaan, CT. More information available from US FCC via Universal Licensing System and Coast Guard Vessel Documentation Center.

Last reported at 2017-Feb-21 16:33 UTC. Time now 2017-Feb-21 17:25 UTC.
Position N 40°40' W 074°08'.

Length 36 m; draft 5.3 m.

Type: Tug. MMSI: 366939790.

Date/timePositionNaut miles runAvg speedWind from/ knotsBaromVisibWave heightAir tempDewpointWater temp
2017-Feb-21 16:33N 40°40' W 074°08'1 1.4
2017-Feb-21 15:33N 40°41' W 074°08'3 2.9
2017-Feb-21 14:32N 40°38' W 074°08'0 0.0
2017-Feb-21 13:32N 40°38' W 074°08'0 0.5
2017-Feb-21 12:33N 40°39' W 074°08'1 0.8
2017-Feb-21 11:33N 40°39' W 074°09'4 4.0
2017-Feb-21 10:33N 40°39' W 074°03'0 0.4
2017-Feb-21 09:33N 40°38' W 074°04'3 2.9
2017-Feb-21 08:33N 40°38' W 074°08'0 0.0
2017-Feb-21 07:33N 40°38' W 074°08'0 0.0
2017-Feb-21 06:33N 40°38' W 074°08'0 0.0
2017-Feb-21 05:30N 40°38' W 074°08'0 0.0
2017-Feb-21 04:33N 40°38' W 074°08'0 0.1
2017-Feb-21 03:33N 40°39' W 074°08'2 2.0
2017-Feb-21 02:33N 40°39' W 074°05'1 0.6
2017-Feb-21 01:33N 40°39' W 074°06'1 1.3
2017-Feb-21 00:33N 40°39' W 074°04'0 0.4
2017-Feb-20 23:34N 40°39' W 074°05'2 2.4
2017-Feb-20 22:32N 40°38' W 074°08'0 0.0
2017-Feb-20 21:26N 40°38' W 074°08'1 1.7
2017-Feb-20 20:33N 40°39' W 074°10'1 0.9
2017-Feb-20 19:33N 40°39' W 074°11'2 2.4
2017-Feb-20 18:33N 40°38' W 074°08'0 0.0
2017-Feb-20 17:33N 40°38' W 074°08'2 1.6
2017-Feb-20 16:33N 40°40' W 074°09'2 1.5
2017-Feb-20 15:29N 40°38' W 074°08'0 0.0
2017-Feb-20 14:29N 40°38' W 074°08'0 0.0
2017-Feb-20 13:32N 40°38' W 074°08'0 0.0
2017-Feb-20 12:32N 40°38' W 074°08'0 0.0
2017-Feb-20 11:32N 40°38' W 074°08'0 0.0
2017-Feb-20 10:32N 40°38' W 074°08'0 0.0
2017-Feb-20 09:26N 40°38' W 074°08'0 0.0
2017-Feb-20 08:32N 40°38' W 074°08'0 0.0
2017-Feb-20 07:32N 40°38' W 074°08'0 0.0
2017-Feb-20 06:32N 40°38' W 074°08'0 0.0
2017-Feb-20 05:29N 40°38' W 074°08'0 0.0
2017-Feb-20 04:32N 40°38' W 074°08'0 0.0
2017-Feb-20 03:26N 40°38' W 074°08'0 0.0
2017-Feb-20 02:32N 40°38' W 074°08'0 0.0
2017-Feb-20 01:33N 40°38' W 074°08'0 0.0
2017-Feb-20 00:33N 40°38' W 074°08'3 2.9
2017-Feb-19 23:33N 40°40' W 074°04'2 1.7
2017-Feb-19 22:31N 40°40' W 074°02'2 1.8
2017-Feb-19 21:33N 40°39' W 074°04'4 3.5
2017-Feb-19 20:30N 40°39' W 074°09'2 2.1
2017-Feb-19 19:33N 40°41' W 074°09'3 2.6
2017-Feb-19 18:33N 40°38' W 074°08'0 0.0
2017-Feb-19 17:33N 40°38' W 074°08'0 0.0
2017-Feb-19 16:33N 40°38' W 074°08'0 0.0
2017-Feb-19 15:33N 40°38' W 074°08'0 0.0
2017-Feb-19 14:30N 40°38' W 074°08'0 0.0
2017-Feb-19 13:33N 40°38' W 074°08'0 0.0
2017-Feb-19 12:33N 40°38' W 074°08'0 0.0
2017-Feb-19 11:34N 40°38' W 074°08'0 0.0
2017-Feb-19 10:33N 40°38' W 074°08'0 0.0
2017-Feb-19 09:33N 40°38' W 074°08'0 0.0
2017-Feb-19 08:33N 40°38' W 074°08'0 0.0
2017-Feb-19 07:33N 40°38' W 074°08'0 0.0
2017-Feb-19 06:33N 40°38' W 074°08'0 0.0
2017-Feb-19 05:33N 40°38' W 074°08'0 0.0
2017-Feb-19 04:34N 40°38' W 074°08'0 0.0
2017-Feb-19 03:33N 40°38' W 074°08'0 0.0
2017-Feb-19 02:33N 40°38' W 074°08'0 0.0
2017-Feb-19 01:33N 40°38' W 074°08'0 0.0
2017-Feb-19 00:33N 40°38' W 074°08'0 0.0
2017-Feb-18 23:33N 40°38' W 074°08'0 0.0
2017-Feb-18 22:33N 40°38' W 074°08'1 0.6
2017-Feb-18 21:33N 40°38' W 074°09'5 4.5
2017-Feb-18 20:32N 40°37' W 074°03'3 3.5
2017-Feb-18 19:33N 40°39' W 074°07'1 0.7
2017-Feb-18 18:31N 40°38' W 074°08'0 0.0
2017-Feb-18 17:33N 40°38' W 074°08'4 4.0
2017-Feb-18 16:33N 40°39' W 074°03'0 0.0
2017-Feb-18 15:33N 40°39' W 074°03'0 0.1
2017-Feb-18 14:33N 40°39' W 074°03'0 0.1
2017-Feb-18 13:33N 40°39' W 074°03'0 0.0
2017-Feb-18 12:33N 40°39' W 074°03'4 3.9
2017-Feb-18 11:33N 40°38' W 074°08'0 0.0
2017-Feb-18 10:27N 40°38' W 074°08'0 0.0
2017-Feb-18 09:33N 40°38' W 074°08'0 0.0
2017-Feb-18 08:33N 40°38' W 074°08'0 0.0
2017-Feb-18 07:33N 40°38' W 074°08'0 0.0
2017-Feb-18 06:33N 40°38' W 074°08'0 0.0
2017-Feb-18 05:33N 40°38' W 074°08'0 0.0
2017-Feb-18 04:33N 40°38' W 074°08'0 0.0
2017-Feb-18 03:33N 40°38' W 074°08'0 0.0
2017-Feb-18 02:33N 40°38' W 074°08'0 0.0
2017-Feb-18 01:30N 40°38' W 074°08'0 0.0
2017-Feb-18 00:33N 40°38' W 074°08'0 0.0
2017-Feb-17 23:33N 40°38' W 074°08'0 0.0
2017-Feb-17 22:33N 40°38' W 074°08'0 0.0
2017-Feb-17 21:33N 40°38' W 074°08'0 0.0
2017-Feb-17 20:30N 40°38' W 074°08'0 0.0
2017-Feb-17 19:24N 40°38' W 074°08'0 0.0
2017-Feb-17 18:33N 40°38' W 074°08'0 0.0
2017-Feb-17 17:33N 40°38' W 074°08'0 0.0
2017-Feb-17 16:33N 40°38' W 074°08'0 0.0
2017-Feb-17 15:33N 40°38' W 074°08'0 0.0
2017-Feb-17 14:27N 40°38' W 074°08'0 0.0
2017-Feb-17 13:33N 40°38' W 074°08'0 0.0
2017-Feb-17 12:33N 40°38' W 074°08'0 0.0
2017-Feb-17 11:33N 40°38' W 074°08'0 0.0
2017-Feb-17 10:33N 40°38' W 074°08'0 0.0
2017-Feb-17 09:33N 40°38' W 074°08'0 0.0
2017-Feb-17 08:30N 40°38' W 074°08'0 0.0
2017-Feb-17 07:33N 40°38' W 074°08'0 0.0
2017-Feb-17 06:33N 40°38' W 074°08'0 0.0
2017-Feb-17 05:33N 40°38' W 074°08'0 0.0
2017-Feb-17 04:33N 40°38' W 074°08'0 0.0
2017-Feb-17 03:33N 40°38' W 074°08'0 0.0
2017-Feb-17 02:33N 40°38' W 074°08'0 0.4
2017-Feb-17 01:33N 40°39' W 074°07'0 0.4
2017-Feb-17 00:33N 40°38' W 074°08'0 0.0
2017-Feb-16 23:33N 40°38' W 074°08'0 0.0
2017-Feb-16 22:33N 40°38' W 074°08'0 0.0
2017-Feb-16 21:33N 40°38' W 074°08'0 0.0
2017-Feb-16 20:33N 40°38' W 074°08'0 0.0
2017-Feb-16 19:33N 40°38' W 074°08'0 0.0
2017-Feb-16 18:33N 40°38' W 074°08'0 0.0
2017-Feb-16 17:33N 40°38' W 074°08'0 0.0
2017-Feb-16 16:33N 40°38' W 074°08'0 0.0
2017-Feb-16 15:33N 40°38' W 074°08'0 0.0
2017-Feb-16 14:33N 40°38' W 074°08'0 0.0
2017-Feb-16 13:33N 40°38' W 074°08'0 0.0
2017-Feb-16 12:33N 40°38' W 074°08'0 0.0
2017-Feb-16 11:29N 40°38' W 074°08'0 0.0
2017-Feb-16 09:25N 40°38' W 074°08'0 0.0
2017-Feb-16 07:33N 40°38' W 074°08'0 0.0
2017-Feb-16 06:33N 40°38' W 074°08'0 0.0
2017-Feb-16 05:33N 40°38' W 074°08'0 0.0
2017-Feb-16 04:33N 40°38' W 074°08'0 0.0
2017-Feb-16 03:33N 40°38' W 074°08'0 0.0
2017-Feb-16 02:33N 40°38' W 074°08'0 0.0
2017-Feb-16 01:33N 40°38' W 074°08'0 0.0
2017-Feb-16 00:33N 40°38' W 074°08'0 0.0
2017-Feb-15 23:33N 40°38' W 074°08'0 0.0
2017-Feb-15 22:33N 40°38' W 074°08'0 0.0
2017-Feb-15 21:33N 40°38' W 074°08'2 1.7
2017-Feb-15 20:33N 40°40' W 074°09'2 2.2
2017-Feb-15 19:33N 40°39' W 074°06'1 1.3
2017-Feb-15 18:29N 40°38' W 074°08'0 0.0
2017-Feb-15 17:31N 40°38' W 074°08'0 0.0
2017-Feb-15 16:32N 40°38' W 074°08'0 0.0
2017-Feb-15 15:33N 40°38' W 074°08'0 0.1
2017-Feb-15 14:33N 40°39' W 074°08'0 0.1
2017-Feb-15 13:33N 40°38' W 074°08'0 0.0
2017-Feb-15 12:33N 40°38' W 074°08'0 0.0
2017-Feb-15 11:33N 40°38' W 074°08'0 0.0
2017-Feb-15 10:33N 40°38' W 074°08'0 0.0
2017-Feb-15 09:33N 40°38' W 074°08'0 0.0
2017-Feb-15 08:33N 40°38' W 074°08'0 0.0
2017-Feb-15 07:33N 40°38' W 074°08'0 0.0
2017-Feb-15 06:33N 40°38' W 074°08'0 0.0
2017-Feb-15 05:33N 40°38' W 074°08'0 0.0
2017-Feb-15 04:33N 40°38' W 074°08'0 0.0
2017-Feb-15 03:33N 40°38' W 074°08'0 0.0
2017-Feb-15 02:33N 40°38' W 074°08'0 0.0
2017-Feb-15 01:33N 40°38' W 074°08'0 0.0
2017-Feb-15 00:34N 40°38' W 074°08'6 6.4
2017-Feb-14 23:33N 40°41' W 074°00'5 4.8
2017-Feb-14 22:33N 40°39' W 074°06'4 3.9
2017-Feb-14 21:33N 40°42' W 074°09'0 0.1
2017-Feb-14 20:33N 40°42' W 074°09'0 0.0
2017-Feb-14 19:33N 40°42' W 074°09'0 0.0
2017-Feb-14 18:33N 40°42' W 074°09'0 0.0
2017-Feb-14 17:33N 40°42' W 074°09'3 3.3
2017-Feb-14 16:33N 40°39' W 074°08'6 6.4
2017-Feb-14 15:33N 40°41' W 074°00'6 6.3
2017-Feb-14 14:32N 40°38' W 074°08'0 0.0
2017-Feb-14 13:33N 40°38' W 074°08'0 0.0
2017-Feb-14 12:33N 40°38' W 074°08'0 0.0
2017-Feb-14 11:32N 40°38' W 074°08'0 0.0
2017-Feb-14 10:33N 40°38' W 074°08'0 0.0
2017-Feb-14 09:33N 40°38' W 074°08'0 0.0
2017-Feb-14 08:33N 40°38' W 074°08'0 0.0
2017-Feb-14 07:33N 40°38' W 074°08'0 0.0
2017-Feb-14 06:33N 40°38' W 074°08'0 0.0
2017-Feb-14 05:33N 40°38' W 074°08'0 0.0
2017-Feb-14 04:33N 40°38' W 074°08'0 0.0
2017-Feb-14 03:33N 40°38' W 074°08'0 0.0
2017-Feb-14 02:33N 40°38' W 074°08'0 0.0
2017-Feb-14 01:33N 40°38' W 074°08'0 0.0
2017-Feb-14 00:33N 40°38' W 074°08'0 0.0
2017-Feb-13 23:33N 40°39' W 074°08'0 0.0
2017-Feb-13 22:33N 40°39' W 074°08'2 1.9
2017-Feb-13 21:33N 40°40' W 074°08'3 2.5
2017-Feb-13 20:33N 40°39' W 074°05'2 1.9
2017-Feb-13 19:33N 40°39' W 074°08'0 0.0
2017-Feb-13 18:33N 40°38' W 074°08'0 0.0
2017-Feb-13 17:34N 40°38' W 074°08'0 0.0
2017-Feb-13 16:33N 40°38' W 074°08'0 0.0
2017-Feb-13 15:33N 40°38' W 074°08'0 0.0
2017-Feb-13 14:34N 40°38' W 074°08'0 0.0
2017-Feb-13 13:33N 40°38' W 074°08'1 0.8
2017-Feb-13 12:33N 40°38' W 074°09'1 0.6
2017-Feb-13 11:34N 40°39' W 074°10'1 1.4
2017-Feb-13 10:34N 40°38' W 074°08'0 0.0
2017-Feb-13 09:33N 40°39' W 074°08'0 0.0
2017-Feb-13 08:34N 40°38' W 074°08'0 0.0
2017-Feb-13 07:34N 40°38' W 074°08'3 2.5
2017-Feb-13 06:34N 40°39' W 074°05'2 1.6
2017-Feb-13 05:34N 40°38' W 074°03'4 3.7
2017-Feb-13 04:34N 40°38' W 074°08'0 0.0
2017-Feb-13 03:34N 40°38' W 074°08'0 0.0
2017-Feb-13 02:34N 40°38' W 074°08'0 0.0
2017-Feb-13 01:33N 40°38' W 074°08'0 0.0
2017-Feb-13 00:34N 40°38' W 074°08'0 0.0
2017-Feb-12 23:34N 40°38' W 074°08'0 0.0
2017-Feb-12 22:33N 40°38' W 074°08'0 0.0
2017-Feb-12 21:33N 40°38' W 074°08'0 0.0
2017-Feb-12 20:34N 40°38' W 074°08'0 0.0
2017-Feb-12 19:34N 40°38' W 074°08'0 0.0
2017-Feb-12 18:34N 40°38' W 074°08'0 0.0
2017-Feb-12 17:34N 40°38' W 074°08'0 0.0
2017-Feb-12 16:33N 40°38' W 074°08'0 0.0
2017-Feb-12 15:34N 40°38' W 074°08'0 0.0
2017-Feb-12 14:33N 40°38' W 074°08'0 0.0
2017-Feb-12 13:34N 40°38' W 074°08'0 0.0
2017-Feb-12 12:34N 40°38' W 074°08'0 0.0
2017-Feb-12 11:34N 40°38' W 074°08'0 0.0
2017-Feb-12 10:34N 40°38' W 074°08'0 0.0
2017-Feb-12 09:34N 40°38' W 074°08'0 0.0
2017-Feb-12 08:34N 40°38' W 074°08'0 0.0
2017-Feb-12 07:33N 40°38' W 074°08'0 0.0
2017-Feb-12 06:33N 40°38' W 074°08'0 0.0
2017-Feb-12 05:33N 40°38' W 074°08'3 3.4
2017-Feb-12 04:33N 40°38' W 074°12'6 5.5
2017-Feb-12 03:33N 40°32' W 074°15'0 0.0
2017-Feb-12 02:33N 40°32' W 074°15'4 3.3
2017-Feb-12 01:27N 40°35' W 074°12'4 4.4
2017-Feb-12 00:33N 40°39' W 074°10'5 5.4
2017-Feb-11 23:33N 40°38' W 074°03'3 3.1
2017-Feb-11 22:34N 40°39' W 074°07'1 0.7
2017-Feb-11 21:33N 40°38' W 074°08'2 2.0
2017-Feb-11 20:33N 40°40' W 074°08'2 1.8
2017-Feb-11 19:34N 40°39' W 074°08'0 0.5
2017-Feb-11 18:34N 40°38' W 074°08'4 3.8
2017-Feb-11 17:34N 40°39' W 074°03'  

Dump ship's entire track history